Terminal Aerodrome Forecast
Issued by NWS

Home | Current Version | Previous Version | Text Only | Print | Product List | Glossary On
Versions: 1 2 3 4 5 6 7 8 9 10 11 12 13 14 15 16 17 18 19 20 21
000
FTUS43 KGRB 251100
TAFATW
TAF
KATW 251133Z 2512/2612 29011KT 5SM -SHSN SCT020 OVC030
     FM251400 29008KT P6SM OVC035
     FM251900 26007KT P6SM SCT040 BKN120
     FM260000 22003KT P6SM SKC=

USA.gov is the U.S. government's official web portal to all federal, state and local government web resources and services.